Terminal Aerodrome Forecast
Issued by NWS Sioux Falls, SD

Home | Current Version | Previous Version | Text Only | Print | Product List | Glossary Off
Versions: 1 2 3 4 5 6 7 8 9 10 11 12 13 14 15 16

078
FTUS43 KFSD 161720
TAFFSD
TAF
KFSD 161720Z 1618/1718 33009KT P6SM VCSH OVC020
     FM162100 32010KT P6SM OVC030
     FM162300 32008KT P6SM BKN035
     FM170200 32009KT P6SM SCT070
     FM170900 31005KT P6SM SKC=

USA.gov is the U.S. government's official web portal to all federal, state and local government web resources and services.